Time;durP1;ratioP1;P1;durP2;ratioP2;P2;SDS_P1;SDS_P2;PMS_P1;PMS_P2;Temp;Humidity;BMP_temperature;BMP_pressure;BME280_temperature;BME280_humidity;BME280_pressure;Samples;Min_cycle;Max_cycle;Signal;HPM_P1;HPM_P2
2022/10/16 00:01:48;;;;;;;11.68;6.40;;;10.00;1.00;;;10.29;81.85;99772.97;5000908;28;129863;-77
2022/10/16 00:04:17;;;;;;;11.88;6.60;;;9.90;1.00;;;10.28;81.91;99784.13;5001416;28;119419;-76
2022/10/16 00:06:46;;;;;;;9.40;6.47;;;9.90;1.00;;;10.27;81.93;99780.63;5001181;28;119553;-73
2022/10/16 00:09:15;;;;;;;10.82;5.85;;;9.90;1.00;;;10.24;81.81;99775.81;4985962;28;129170;-74
2022/10/16 00:11:43;;;;;;;12.30;6.38;;;10.00;1.00;;;10.26;82.05;99779.00;5000798;28;130097;-75
2022/10/16 00:14:15;;;;;;;7.85;5.55;;;10.00;1.00;;;10.30;81.27;99773.78;4986285;28;118522;-74
2022/10/16 00:16:44;;;;;;;9.75;5.72;;;10.10;1.00;;;10.28;81.74;99776.78;4986252;28;119126;-75
2022/10/16 00:19:13;;;;;;;12.80;6.65;;;10.00;1.00;;;10.32;81.72;99777.81;4985825;28;129738;-76
2022/10/16 00:21:42;;;;;;;10.23;6.50;;;10.10;1.00;;;10.36;81.46;99778.03;5000542;28;129629;-76
2022/10/16 00:24:31;;;;;;;9.63;6.20;;;10.10;1.00;;;10.31;81.58;99773.47;4988207;28;122564;-74
2022/10/16 00:26:59;;;;;;;15.20;6.32;;;10.10;1.00;;;10.31;81.54;99765.34;5000762;28;122260;-74
2022/10/16 00:29:27;;;;;;;11.25;6.35;;;10.00;1.00;;;10.26;82.33;99773.59;5000439;28;131000;-74
2022/10/16 00:31:56;;;;;;;13.48;6.47;;;10.00;1.00;;;10.24;81.83;99779.31;5000478;28;130615;-75
2022/10/16 00:34:24;;;;;;;11.40;6.28;;;9.90;1.00;;;10.24;82.04;99776.59;5000818;28;119888;-74
2022/10/16 00:36:52;;;;;;;13.15;7.15;;;9.90;1.00;;;10.27;81.85;99775.19;5000774;28;119749;-75
2022/10/16 00:39:22;;;;;;;12.10;6.22;;;9.90;1.00;;;10.28;82.07;99779.50;5000289;28;129930;-76
2022/10/16 00:41:51;;;;;;;10.85;6.63;;;9.90;1.00;;;10.25;81.64;99783.63;4985763;28;128721;-76
2022/10/16 00:44:46;;;;;;;11.40;6.15;;;10.00;1.00;;;10.24;82.06;99773.88;4985918;28;118420;-75
2022/10/16 00:47:22;;;;;;;11.70;6.03;;;10.00;1.00;;;10.26;81.54;99773.59;5002094;28;119460;-76
2022/10/16 00:49:54;;;;;;;11.10;5.93;;;10.00;1.00;;;10.23;81.60;99774.19;4973768;28;131808;-74
2022/10/16 00:52:23;;;;;;;13.15;6.45;;;10.00;1.00;;;10.24;81.71;99770.38;4982070;28;129764;-75
2022/10/16 00:54:53;;;;;;;9.48;5.75;;;10.00;1.00;;;10.24;81.66;99764.97;4985442;28;118579;-75
2022/10/16 00:57:24;;;;;;;15.93;6.03;;;10.00;1.00;;;10.27;81.29;99780.63;5000128;28;119661;-75
2022/10/16 00:59:53;;;;;;;10.23;5.97;;;10.00;1.00;;;10.25;81.53;99777.41;5000229;28;130670;-74
2022/10/16 01:02:21;;;;;;;8.60;5.90;;;10.00;1.00;;;10.20;81.95;99770.16;5000254;28;129782;-75
2022/10/16 01:04:53;;;;;;;13.15;5.95;;;10.00;1.00;;;10.20;81.96;99774.78;5000535;28;119628;-74
2022/10/16 01:07:35;;;;;;;9.93;5.60;;;9.90;1.00;;;10.14;82.33;99781.41;4985872;28;119730;-74
2022/10/16 01:10:15;;;;;;;8.07;5.40;;;9.90;1.00;;;10.14;81.81;99781.41;4985130;28;129481;-75
2022/10/16 01:12:51;;;;;;;11.13;6.20;;;9.90;1.00;;;10.15;81.52;99783.03;4984698;28;129609;-75
2022/10/16 01:15:27;;;;;;;11.68;5.82;;;9.80;1.00;;;10.08;81.90;99784.25;4998835;28;121916;-75
2022/10/16 01:18:02;;;;;;;9.77;5.97;;;9.80;1.00;;;10.07;81.79;99782.63;4985177;28;121781;-75
2022/10/16 01:20:37;;;;;;;10.40;5.97;;;9.70;1.00;;;9.99;82.46;99772.50;4985194;28;129879;-75
2022/10/16 01:23:38;;;;;;;8.88;5.50;;;9.70;1.00;;;9.85;82.63;99790.66;4999732;28;129708;-75
2022/10/16 01:26:32;;;;;;;11.68;6.68;;;9.60;1.00;;;9.80;82.96;99782.59;4994831;28;119890;-75
2022/10/16 01:29:09;;;;;;;10.95;6.00;;;9.60;1.00;;;9.78;83.17;99791.03;4982128;28;119265;-76
2022/10/16 01:31:42;;;;;;;10.38;5.75;;;9.60;1.00;;;9.77;83.97;99788.63;4999451;28;129840;-76
2022/10/16 01:34:18;;;;;;;9.93;6.28;;;9.60;1.00;;;9.77;83.57;99789.44;5000110;28;129522;-75
2022/10/16 01:36:52;;;;;;;12.15;5.97;;;9.50;1.00;;;9.76;84.03;99797.88;4984462;28;119703;-76
2022/10/16 01:39:26;;;;;;;10.07;5.85;;;9.50;1.00;;;9.73;84.10;99798.47;4985059;28;120235;-76
2022/10/16 01:42:07;;;;;;;14.77;6.50;;;9.50;1.00;;;9.76;83.58;99797.88;4998345;28;129918;-75
2022/10/16 01:44:39;;;;;;;11.10;6.50;;;9.50;1.00;;;9.70;84.20;99794.44;4999418;28;130173;-74
2022/10/16 01:47:11;;;;;;;16.73;6.90;;;9.50;1.00;;;9.70;84.20;99795.22;5011908;28;119259;-75
2022/10/16 01:49:41;;;;;;;11.02;5.38;;;9.40;1.00;;;9.70;84.18;99800.66;5019495;28;120307;-75
2022/10/16 01:52:16;;;;;;;9.48;6.13;;;9.40;1.00;;;9.69;83.93;99782.81;5019055;28;130236;-73
2022/10/16 01:54:49;;;;;;;11.48;5.88;;;9.40;1.00;;;9.70;84.29;99800.66;5019483;28;130054;-75
2022/10/16 01:57:19;;;;;;;12.30;5.85;;;9.40;1.00;;;9.68;84.53;99807.50;5019338;28;119671;-75
2022/10/16 01:59:57;;;;;;;10.63;6.40;;;9.40;1.00;;;9.67;84.50;99806.66;5005226;28;118314;-75
2022/10/16 02:02:29;;;;;;;9.60;6.18;;;9.50;1.00;;;9.66;84.79;99815.91;5018399;28;130585;-74
2022/10/16 02:05:05;;;;;;;10.95;6.70;;;9.50;1.00;;;9.70;84.28;99805.28;5019076;28;129674;-75
2022/10/16 02:07:34;;;;;;;10.18;5.95;;;9.50;1.00;;;9.68;84.30;99812.91;5019952;27;121896;-75
2022/10/16 02:10:03;;;;;;;11.35;6.20;;;9.50;1.00;;;9.70;84.32;99822.31;5022069;28;121975;-75
2022/10/16 02:12:37;;;;;;;12.68;6.18;;;9.50;1.00;;;9.70;84.28;99806.06;5022948;28;129890;-75
2022/10/16 02:15:08;;;;;;;11.38;6.30;;;9.50;1.00;;;9.67;84.89;99817.50;5007978;28;128987;-75
2022/10/16 02:17:37;;;;;;;12.25;6.30;;;9.50;1.00;;;9.64;84.69;99817.31;5004705;28;119894;-76
2022/10/16 02:20:06;;;;;;;8.70;6.43;;;9.50;1.00;;;9.57;84.85;99822.28;5007744;28;118951;-75
2022/10/16 02:22:40;;;;;;;13.10;6.25;;;9.40;1.00;;;9.58;84.44;99819.28;5022684;28;129853;-78
2022/10/16 02:25:14;;;;;;;11.93;6.32;;;9.40;1.00;;;9.53;84.90;99816.66;5005159;28;129443;-76
2022/10/16 02:27:54;;;;;;;11.32;6.40;;;9.40;1.00;;;9.49;84.85;99821.06;5022828;28;119450;-75
2022/10/16 02:30:35;;;;;;;11.93;6.78;;;9.30;1.00;;;9.45;85.41;99815.44;5022805;28;119292;-75
2022/10/16 02:33:09;;;;;;;10.93;6.38;;;9.30;1.00;;;9.43;85.48;99822.28;5021120;28;130965;-76
2022/10/16 02:35:39;;;;;;;12.32;6.15;;;9.20;1.00;;;9.39;85.67;99815.81;5004524;28;129434;-77
2022/10/16 02:38:09;;;;;;;12.52;6.32;;;9.20;1.00;;;9.32;85.94;99817.00;5007647;28;119105;-77
2022/10/16 02:40:38;;;;;;;10.30;6.82;;;9.20;1.00;;;9.30;86.17;99819.22;5022562;28;119481;-75
2022/10/16 02:43:07;;;;;;;11.88;6.63;;;9.10;1.00;;;9.30;86.36;99824.63;5022215;28;130291;-76
2022/10/16 02:45:37;;;;;;;13.20;7.22;;;9.10;1.00;;;9.26;86.67;99826.31;5022165;28;129453;-75
2022/10/16 02:48:06;;;;;;;11.95;6.68;;;9.10;1.00;;;9.22;86.83;99821.78;5025230;28;119842;-76
2022/10/16 02:50:35;;;;;;;18.27;6.95;;;9.10;1.00;;;9.23;86.55;99832.31;5022872;28;119826;-76
2022/10/16 02:53:04;;;;;;;16.25;7.15;;;9.10;1.00;;;9.20;86.44;99824.78;5022036;28;129944;-76
2022/10/16 02:55:32;;;;;;;11.02;6.60;;;9.10;1.00;;;9.21;86.75;99826.41;5022034;28;130008;-75
2022/10/16 02:58:01;;;;;;;11.20;6.65;;;9.10;1.00;;;9.17;86.72;99833.47;5021244;28;122323;-75
2022/10/16 03:00:29;;;;;;;11.00;6.25;;;9.00;1.00;;;9.19;87.15;99839.41;5022502;28;121825;-75
2022/10/16 03:02:59;;;;;;;14.57;6.93;;;9.00;1.00;;;9.19;86.92;99834.00;5021878;28;131038;-76
2022/10/16 03:05:28;;;;;;;10.45;6.55;;;9.00;1.00;;;9.14;87.11;99842.19;5007390;28;129162;-76
2022/10/16 03:07:59;;;;;;;11.35;7.03;;;9.00;1.00;;;9.13;86.85;99829.75;5020848;28;119712;-75
2022/10/16 03:10:28;;;;;;;12.32;6.45;;;9.00;1.00;;;9.12;87.20;99839.00;5022064;28;119477;-75
2022/10/16 03:12:57;;;;;;;11.75;6.55;;;8.90;1.00;;;9.05;87.25;99833.13;5021861;28;130013;-76
2022/10/16 03:15:25;;;;;;;11.00;6.70;;;8.90;1.00;;;9.09;87.19;99839.56;5006951;28;128453;-75
2022/10/16 03:17:54;;;;;;;12.30;7.47;;;8.90;1.00;;;9.03;87.61;99835.31;5021976;28;120084;-74
2022/10/16 03:20:24;;;;;;;13.57;7.10;;;8.80;1.00;;;9.01;87.36;99838.31;5003988;28;119421;-75
2022/10/16 03:22:53;;;;;;;11.15;6.72;;;8.80;1.00;;;8.93;87.76;99828.97;5020505;28;130892;-74
2022/10/16 03:25:21;;;;;;;13.18;7.22;;;8.80;1.00;;;8.95;87.74;99834.09;5021536;28;129628;-74
2022/10/16 03:27:50;;;;;;;12.02;7.15;;;8.70;1.00;;;8.89;87.91;99841.44;5023736;28;119544;-74
2022/10/16 03:30:18;;;;;;;12.13;6.40;;;8.70;1.00;;;8.85;88.36;99848.56;5021616;28;120327;-73
2022/10/16 03:32:47;;;;;;;11.50;6.53;;;8.70;1.00;;;8.84;88.33;99844.25;5021325;28;129496;-74
2022/10/16 03:35:16;;;;;;;11.63;6.72;;;8.60;1.00;;;8.82;88.63;99846.44;5021202;28;129411;-73
2022/10/16 03:37:46;;;;;;;12.43;6.40;;;8.50;1.00;;;8.81;88.47;99856.44;5021736;28;120254;-75
2022/10/16 03:40:14;;;;;;;14.90;6.88;;;8.50;1.00;;;8.74;88.42;99855.19;5021970;28;119652;-74
2022/10/16 03:42:44;;;;;;;13.13;6.88;;;8.60;1.00;;;8.72;88.99;99854.69;5021650;28;129790;-74
2022/10/16 03:45:13;;;;;;;13.15;6.95;;;8.60;1.00;;;8.73;88.66;99859.00;5021040;28;130324;-74
2022/10/16 03:47:41;;;;;;;12.35;7.05;;;8.60;1.00;;;8.69;88.88;99863.38;5022127;28;122262;-74
2022/10/16 03:50:10;;;;;;;13.48;7.03;;;8.60;1.00;;;8.74;88.44;99866.00;5021264;28;121716;-74
2022/10/16 03:52:38;;;;;;;12.20;6.43;;;8.50;1.00;;;8.71;88.64;99861.19;5005382;28;129827;-75
2022/10/16 03:55:09;;;;;;;14.82;7.10;;;8.50;1.00;;;8.71;88.57;99861.19;5021105;28;128921;-75
2022/10/16 03:57:38;;;;;;;13.20;7.10;;;8.50;1.00;;;8.68;88.66;99864.47;5021240;28;120679;-77
2022/10/16 04:00:08;;;;;;;13.63;7.93;;;8.50;1.00;;;8.68;88.91;99862.59;5021322;28;119188;-75
2022/10/16 04:02:40;;;;;;;13.50;7.82;;;8.40;1.00;;;8.64;88.74;99865.03;5021017;28;129789;-77
2022/10/16 04:05:09;;;;;;;11.50;6.43;;;8.40;1.00;;;8.64;88.81;99866.94;5003414;28;129743;-75
2022/10/16 04:07:38;;;;;;;13.95;7.45;;;8.30;1.00;;;8.57;89.21;99872.72;5021220;28;120056;-76
2022/10/16 04:10:09;;;;;;;12.57;6.50;;;8.30;1.00;;;8.51;89.33;99878.47;5021170;28;119394;-76
2022/10/16 04:12:38;;;;;;;12.77;6.95;;;8.30;1.00;;;8.50;89.21;99877.66;5019638;28;129662;-76
2022/10/16 04:15:08;;;;;;;14.23;7.00;;;8.30;1.00;;;8.49;89.55;99881.44;5020813;28;129734;-76
2022/10/16 04:17:36;;;;;;;15.25;7.45;;;8.20;1.00;;;8.44;89.97;99884.22;5006279;28;118889;-78
2022/10/16 04:20:06;;;;;;;11.93;6.90;;;8.20;1.00;;;8.40;90.03;99883.16;5005052;28;118856;-75
2022/10/16 04:22:35;;;;;;;17.15;7.57;;;8.20;1.00;;;8.37;89.76;99879.13;5020584;28;130078;-75
2022/10/16 04:25:03;;;;;;;13.25;7.40;;;8.20;1.00;;;8.40;89.76;99894.00;5021374;28;129996;-74
2022/10/16 04:27:33;;;;;;;14.00;7.68;;;8.10;1.00;;;8.38;90.23;99890.75;5006560;28;119803;-74
2022/10/16 04:30:02;;;;;;;14.38;7.65;;;8.10;1.00;;;8.32;90.59;99887.31;5020630;27;119654;-75
2022/10/16 04:32:31;;;;;;;13.23;7.40;;;8.00;1.00;;;8.24;90.73;99880.63;5020777;28;129853;-74
2022/10/16 04:34:59;;;;;;;12.40;7.30;;;8.00;1.00;;;8.25;90.66;99881.41;5006014;28;128505;-74
2022/10/16 04:37:28;;;;;;;13.88;7.70;;;8.10;1.00;;;8.24;90.83;99874.41;5000482;28;122233;-74
2022/10/16 04:39:56;;;;;;;16.27;8.35;;;8.10;1.00;;;8.30;90.37;99872.44;5019187;28;122931;-76
2022/10/16 04:42:25;;;;;;;12.25;7.65;;;8.10;1.00;;;8.35;89.97;99866.97;5002264;28;129539;-73
2022/10/16 04:44:55;;;;;;;14.48;9.00;;;8.20;1.00;;;8.31;90.46;99866.75;5020579;28;129652;-73
2022/10/16 04:47:24;;;;;;;12.07;7.65;;;8.10;1.00;;;8.32;90.09;99854.03;5022646;28;119797;-73
2022/10/16 04:49:52;;;;;;;14.70;7.97;;;8.10;1.00;;;8.32;89.81;99856.75;5005814;28;118677;-73
2022/10/16 04:52:21;;;;;;;16.38;8.95;;;8.10;1.00;;;8.32;89.70;99856.75;5005331;28;130070;-75
2022/10/16 04:54:50;;;;;;;14.55;7.75;;;8.10;1.00;;;8.32;89.74;99856.75;5000707;28;130278;-75
2022/10/16 04:57:18;;;;;;;12.90;7.72;;;8.10;1.00;;;8.31;89.72;99853.25;5020447;28;120367;-76
2022/10/16 04:59:47;;;;;;;12.07;8.07;;;8.10;1.00;;;8.23;89.96;99851.97;5020220;28;119386;-74
2022/10/16 05:02:17;;;;;;;13.32;7.65;;;8.10;1.00;;;8.22;89.67;99850.34;5000768;28;129785;-73
2022/10/16 05:04:45;;;;;;;14.30;7.50;;;8.10;1.00;;;8.17;90.58;99850.41;5019456;28;129905;-74
2022/10/16 05:07:13;;;;;;;12.05;7.25;;;8.10;1.00;;;8.17;90.41;99858.53;5020668;28;119661;-74
2022/10/16 05:09:42;;;;;;;13.68;7.15;;;8.00;1.00;;;8.16;90.02;99865.00;5020350;28;119123;-75
2022/10/16 05:12:10;;;;;;;13.27;6.85;;;8.00;1.00;;;8.16;90.29;99865.00;5019900;28;129890;-75
2022/10/16 05:14:39;;;;;;;12.35;7.30;;;7.90;1.00;;;8.15;90.50;99870.69;5005154;28;128960;-76
2022/10/16 05:17:08;;;;;;;13.35;6.93;;;7.90;1.00;;;8.14;90.75;99863.69;5019624;28;119895;-75
2022/10/16 05:19:38;;;;;;;13.63;7.68;;;7.90;1.00;;;8.11;90.58;99870.47;5020449;28;119894;-74
2022/10/16 05:22:07;;;;;;;14.57;7.20;;;7.90;1.00;;;8.17;89.98;99866.63;5019606;28;131973;-75
2022/10/16 05:24:35;;;;;;;13.25;7.43;;;8.00;1.00;;;8.20;89.82;99868.75;5019269;28;129733;-74
2022/10/16 05:27:04;;;;;;;13.57;7.32;;;8.00;1.00;;;8.27;89.10;99873.81;5018747;28;122467;-74
2022/10/16 05:29:32;;;;;;;12.65;7.13;;;8.10;1.00;;;8.40;88.72;99877.75;5004551;28;122228;-74
2022/10/16 05:32:01;;;;;;;11.18;6.82;;;8.10;1.00;;;8.39;88.74;99873.44;5019784;28;130294;-75
2022/10/16 05:34:29;;;;;;;10.40;6.97;;;8.10;1.00;;;8.51;88.16;99875.75;5005103;28;129041;-74
2022/10/16 05:37:00;;;;;;;14.43;7.63;;;8.20;1.00;;;8.59;88.05;99865.13;5016765;28;119607;-75
2022/10/16 05:39:28;;;;;;;12.77;7.45;;;8.20;1.00;;;8.72;87.38;99873.63;5018324;28;119354;-75
2022/10/16 05:41:57;;;;;;;10.80;6.60;;;8.30;1.00;;;8.76;86.11;99874.66;5004178;28;129781;-75
2022/10/16 05:44:25;;;;;;;13.50;7.38;;;8.30;1.00;;;8.88;84.77;99883.16;5023905;28;129372;-75
2022/10/16 05:46:54;;;;;;;13.70;7.35;;;8.40;1.00;;;9.02;84.09;99882.44;5024032;28;119694;-74
2022/10/16 05:49:23;;;;;;;12.20;6.95;;;8.50;1.00;;;9.06;83.95;99894.31;5022659;28;119488;-75
2022/10/16 05:51:51;;;;;;;13.20;6.80;;;8.50;1.00;;;9.14;83.49;99885.53;5022390;28;129866;-75
2022/10/16 05:54:22;;;;;;;11.52;6.97;;;8.60;1.00;;;9.30;82.18;99900.47;5008245;28;128195;-74
2022/10/16 05:56:50;;;;;;;10.50;6.28;;;8.70;1.00;;;9.40;81.20;99894.09;5007818;28;118732;-74
2022/10/16 05:59:19;;;;;;;14.43;7.10;;;8.70;1.00;;;9.41;81.02;99889.47;5022905;28;119225;-76
2022/10/16 06:01:48;;;;;;;11.32;6.25;;;8.80;1.00;;;9.54;80.71;99899.56;5010645;28;128661;-74
2022/10/16 06:04:16;;;;;;;14.23;7.32;;;9.00;1.00;;;9.66;79.42;99893.69;5021930;28;129388;-73
2022/10/16 06:06:45;;;;;;;10.27;6.63;;;9.00;1.00;;;9.70;79.08;99898.22;5021707;28;119703;-72
2022/10/16 06:09:13;;;;;;;14.45;7.22;;;9.00;1.00;;;9.69;78.82;99899.34;5005144;28;119514;-74
2022/10/16 06:11:43;;;;;;;13.68;6.72;;;9.00;1.00;;;9.66;78.48;99912.66;5021836;28;129691;-73
2022/10/16 06:14:11;;;;;;;13.02;6.68;;;9.00;1.00;;;9.64;78.52;99912.94;5022680;28;129361;-74
2022/10/16 06:16:40;;;;;;;11.68;6.97;;;9.00;1.00;;;9.61;78.59;99923.56;5006310;28;121907;-72
2022/10/16 06:19:09;;;;;;;10.77;7.05;;;9.00;1.00;;;9.65;78.81;99917.28;5022701;28;121939;-73
2022/10/16 06:21:38;;;;;;;12.50;6.80;;;9.00;1.00;;;9.60;78.24;99925.50;5021356;28;131048;-74
2022/10/16 06:24:06;;;;;;;14.57;7.03;;;9.00;1.00;;;9.45;78.24;99923.00;5022347;28;129507;-73
2022/10/16 06:26:35;;;;;;;12.30;7.05;;;8.80;1.00;;;9.40;78.40;99933.91;5021922;28;119994;-74
2022/10/16 06:29:05;;;;;;;16.50;6.93;;;8.80;1.00;;;9.53;78.28;99946.72;5022732;28;119970;-73
2022/10/16 06:31:33;;;;;;;15.75;7.70;;;8.90;1.00;;;9.65;77.49;99949.78;5022176;28;129806;-75
2022/10/16 06:34:04;;;;;;;13.27;7.47;;;9.00;1.00;;;9.77;77.01;99951.25;5022414;28;130066;-73
2022/10/16 06:36:32;;;;;;;14.55;7.15;;;9.00;1.00;;;9.90;76.39;99945.06;5021990;28;119650;-75
2022/10/16 06:39:01;;;;;;;13.60;7.00;;;9.10;1.00;;;9.95;76.07;99944.97;5022449;28;119875;-74
2022/10/16 06:41:30;;;;;;;13.30;6.97;;;9.20;1.00;;;10.10;75.53;99943.13;5020207;28;130008;-73
2022/10/16 06:43:59;;;;;;;13.35;7.38;;;9.30;1.00;;;10.17;75.39;99947.06;5006356;28;129012;-74
2022/10/16 06:46:29;;;;;;;10.95;6.90;;;9.30;1.00;;;10.13;74.45;99947.94;5022344;28;120026;-71
2022/10/16 06:48:58;;;;;;;12.65;7.80;;;9.30;1.00;;;10.23;73.98;99950.50;5007265;28;119217;-73
2022/10/16 06:51:27;;;;;;;11.00;6.75;;;9.40;1.00;;;10.29;73.93;99957.44;5007228;28;129316;-74
2022/10/16 06:53:57;;;;;;;15.45;7.15;;;9.40;1.00;;;10.37;73.96;99950.56;5020834;28;129737;-73
2022/10/16 06:56:29;;;;;;;16.10;6.82;;;9.50;1.00;;;10.49;72.98;99947.38;5020387;28;120861;-73
2022/10/16 06:58:58;;;;;;;12.75;6.63;;;9.50;1.00;;;10.62;72.28;99949.28;5022859;28;119342;-73
2022/10/16 07:01:28;;;;;;;13.80;7.35;;;9.60;1.00;;;10.61;71.83;99958.50;5021809;28;130109;-72
2022/10/16 07:03:57;;;;;;;11.77;6.30;;;9.70;1.00;;;10.77;72.09;99948.97;5021620;28;129427;-72
2022/10/16 07:06:27;;;;;;;11.55;6.68;;;9.80;1.00;;;11.03;70.93;99950.38;5004465;28;121213;-73
2022/10/16 07:08:56;;;;;;;15.85;7.05;;;10.00;1.00;;;11.35;69.58;99954.84;5007184;28;121097;-74
2022/10/16 07:11:25;;;;;;;15.90;7.47;;;10.20;1.00;;;11.52;68.63;99955.00;5020144;28;129530;-73
2022/10/16 07:13:54;;;;;;;13.13;6.93;;;10.30;1.00;;;11.70;67.76;99949.72;5002840;28;129211;-73
2022/10/16 07:16:25;;;;;;;13.75;6.47;;;10.40;1.00;;;11.88;67.19;99954.16;5009254;28;119288;-74
2022/10/16 07:18:58;;;;;;;10.70;6.88;;;10.60;1.00;;;11.97;66.79;99956.19;5001043;28;119526;-73
2022/10/16 07:21:30;;;;;;;11.80;6.22;;;10.70;1.00;;;12.20;65.99;99946.91;5000464;28;130534;-74
2022/10/16 07:24:02;;;;;;;14.00;7.00;;;10.90;1.00;;;12.34;65.30;99960.44;5004145;28;129505;-74
2022/10/16 07:26:36;;;;;;;12.77;6.25;;;10.90;1.00;;;12.52;65.05;99958.59;5001279;28;119683;-73
2022/10/16 07:29:04;;;;;;;12.77;7.03;;;11.10;1.00;;;12.32;64.50;99961.84;4983224;28;119113;-73
2022/10/16 07:31:33;;;;;;;11.60;7.10;;;10.90;1.00;;;12.06;65.85;99962.50;5000482;28;130828;-72
2022/10/16 07:34:03;;;;;;;12.05;6.90;;;10.70;1.00;;;12.02;66.48;99956.84;5003795;28;130547;-72
2022/10/16 07:36:32;;;;;;;11.82;7.30;;;10.70;1.00;;;11.82;66.97;99958.13;4982648;28;119605;-73
2022/10/16 07:39:01;;;;;;;13.23;6.25;;;10.60;1.00;;;11.81;66.95;99966.59;5000160;28;119492;-72
2022/10/16 07:41:32;;;;;;;13.15;7.05;;;10.60;1.00;;;11.86;66.42;99964.56;4999690;28;130435;-72
2022/10/16 07:44:00;;;;;;;13.95;7.15;;;10.60;1.00;;;12.08;66.47;99970.34;5000330;28;130052;-73
2022/10/16 07:46:30;;;;;;;14.30;7.30;;;10.70;1.00;;;12.11;66.10;99965.09;4965347;28;119987;-73
2022/10/16 07:48:59;;;;;;;13.75;7.60;;;10.70;1.00;;;12.36;65.51;99982.69;4980986;28;119069;-74
2022/10/16 07:51:29;;;;;;;16.30;7.72;;;10.90;1.00;;;12.55;64.53;99981.66;4979891;28;130910;-73
2022/10/16 07:53:58;;;;;;;22.35;8.00;;;11.10;1.00;;;12.73;64.06;99969.75;4979987;28;129557;-72
2022/10/16 07:56:27;;;;;;;12.75;7.40;;;11.20;1.00;;;13.01;63.16;99979.59;4978416;28;122617;-73
2022/10/16 07:58:56;;;;;;;11.85;7.30;;;11.50;1.00;;;13.18;62.30;99976.91;4980439;28;121939;-72
2022/10/16 08:01:24;;;;;;;13.52;7.90;;;11.70;1.00;;;13.34;61.56;99984.66;4980100;28;130390;-71
2022/10/16 08:03:53;;;;;;;15.60;7.63;;;11.90;1.00;;;13.21;62.11;99989.91;4980070;28;129404;-73
2022/10/16 08:06:23;;;;;;;12.63;6.90;;;11.80;1.00;;;13.45;61.45;99983.25;4979631;28;119607;-73
2022/10/16 08:08:53;;;;;;;14.32;7.05;;;12.00;1.00;;;13.33;61.92;99981.16;5000872;28;119606;-73
2022/10/16 08:11:23;;;;;;;14.73;6.95;;;11.90;1.00;;;13.44;61.75;99978.94;5000595;28;130417;-73
2022/10/16 08:13:51;;;;;;;10.75;8.00;;;12.00;1.00;;;13.46;61.27;99985.69;4962957;28;128780;-74
2022/10/16 08:16:20;;;;;;;11.38;7.22;;;12.00;1.00;;;13.41;61.75;99976.84;4980634;28;119497;-73
2022/10/16 08:18:51;;;;;;;15.48;7.97;;;11.80;1.00;;;13.39;61.13;99984.53;4979499;28;119539;-73
2022/10/16 08:21:23;;;;;;;13.38;7.53;;;11.80;1.00;;;13.60;60.54;99987.44;4964960;28;128722;-74
2022/10/16 08:23:54;;;;;;;13.10;7.65;;;12.00;1.00;;;13.57;60.97;99982.63;4979667;28;130197;-73
2022/10/16 08:26:23;;;;;;;18.15;7.55;;;12.00;1.00;;;13.65;61.35;99988.09;4950010;28;119687;-74
2022/10/16 08:28:51;;;;;;;15.07;7.97;;;12.20;1.00;;;13.46;61.86;99984.84;4980001;28;120046;-73
2022/10/16 08:31:20;;;;;;;12.10;7.15;;;11.90;1.00;;;13.64;61.34;99986.47;4980351;28;129924;-74
2022/10/16 08:33:48;;;;;;;11.63;7.43;;;12.00;1.00;;;13.81;61.40;99985.69;4980206;28;129650;-72
2022/10/16 08:36:17;;;;;;;10.93;7.30;;;12.20;1.00;;;13.96;60.95;99987.13;4980594;28;119662;-73
2022/10/16 08:38:50;;;;;;;20.08;7.53;;;12.40;1.00;;;14.29;60.64;99989.34;4955155;28;119555;-74
2022/10/16 08:42:25;;;;;;;14.95;7.57;;;12.80;1.00;;;14.42;59.85;99993.00;4980767;28;130021;-73
2022/10/16 08:45:30;;;;;;;12.10;7.32;;;12.90;1.00;;;14.56;59.13;99992.78;4934614;28;129495;-74
2022/10/16 08:48:16;;;;;;;13.18;7.90;;;13.00;1.00;;;14.68;58.95;99978.50;4996886;28;123061;-73
2022/10/16 08:50:45;;;;;;;15.25;8.25;;;13.10;1.00;;;14.57;59.35;99989.72;5000701;28;122249;-71
2022/10/16 08:53:20;;;;;;;15.88;8.95;;;13.00;1.00;;;14.49;60.13;99981.56;5000009;28;129828;-73
2022/10/16 08:55:52;;;;;;;13.75;8.18;;;13.00;1.00;;;14.72;59.82;99980.25;4985792;28;106334;-72
2022/10/16 08:58:27;;;;;;;13.40;8.52;;;13.20;1.00;;;14.80;59.89;99996.91;5000325;28;119716;-73
2022/10/16 09:00:57;;;;;;;12.20;8.00;;;13.30;1.00;;;14.95;58.98;100001.84;5000044;28;119470;-76
2022/10/16 09:03:49;;;;;;;13.98;8.02;;;13.40;1.00;;;15.13;58.34;99999.84;5000159;28;130903;-76
2022/10/16 09:06:38;;;;;;;13.57;7.93;;;13.50;1.00;;;15.06;58.82;100000.31;5000394;28;129533;-76
2022/10/16 09:09:37;;;;;;;14.23;8.70;;;13.50;1.00;;;15.04;59.11;99999.88;4982615;28;119742;-76
2022/10/16 09:12:13;;;;;;;15.60;8.13;;;13.50;1.00;;;15.06;59.46;100000.31;4985418;28;120408;-76
2022/10/16 09:15:13;;;;;;;13.38;7.78;;;13.60;1.00;;;15.16;59.17;100001.09;5001859;28;129831;-76
2022/10/16 09:17:56;;;;;;;14.32;8.38;;;13.60;1.00;;;15.18;59.00;99996.09;4999774;28;129598;-76
2022/10/16 09:20:35;;;;;;;16.42;8.35;;;13.70;1.00;;;15.10;59.26;99993.06;4985341;28;119880;-76
2022/10/16 09:23:17;;;;;;;13.20;8.23;;;13.60;1.00;;;15.18;59.54;100001.56;4982622;28;119508;-75
2022/10/16 09:25:49;;;;;;;12.98;7.80;;;13.70;1.00;;;15.26;59.19;99995.25;4999905;28;130076;-77
2022/10/16 09:28:19;;;;;;;19.48;9.18;;;13.70;1.00;;;15.21;59.50;99995.44;4968692;28;128306;-76
2022/10/16 09:30:50;;;;;;;15.80;8.45;;;13.70;1.00;;;15.22;59.39;99986.09;4999743;28;119761;-76
2022/10/16 09:33:23;;;;;;;12.35;8.00;;;13.70;1.00;;;15.23;59.17;99998.63;4986125;28;118759;-74
2022/10/16 09:35:54;;;;;;;12.48;8.15;;;13.70;1.00;;;15.16;59.61;99992.88;4984895;28;128866;-75
2022/10/16 09:38:27;;;;;;;14.02;7.93;;;13.70;1.00;;;15.11;59.28;99991.13;4999505;28;129595;-73
2022/10/16 09:40:57;;;;;;;12.30;8.07;;;13.60;1.00;;;15.21;58.97;99989.97;4983703;28;120996;-74
2022/10/16 09:43:30;;;;;;;12.95;7.95;;;13.70;1.00;;;15.33;58.99;99992.78;5002871;28;124004;-76
2022/10/16 09:46:03;;;;;;;13.55;8.60;;;13.70;1.00;;;15.36;58.49;99989.38;4999576;28;130633;-75
2022/10/16 09:48:38;;;;;;;14.43;7.78;;;13.80;1.00;;;15.18;58.77;99990.63;4964379;28;131904;-76
2022/10/16 09:51:19;;;;;;;14.32;7.50;;;13.70;1.00;;;15.14;59.07;99984.22;4962192;28;119706;-76
2022/10/16 09:53:48;;;;;;;10.85;7.63;;;13.70;1.00;;;15.23;58.84;99998.63;4979997;28;119527;-75
2022/10/16 09:56:25;;;;;;;12.77;7.75;;;13.80;1.00;;;15.46;58.38;99983.53;4964650;28;129273;-74
2022/10/16 09:58:55;;;;;;;12.38;7.35;;;13.90;1.00;;;15.48;58.12;99990.59;4962399;28;129961;-74
2022/10/16 10:01:36;;;;;;;12.70;7.38;;;13.90;1.00;;;15.26;58.96;99992.50;4965164;28;119944;-74
2022/10/16 10:04:06;;;;;;;13.88;7.18;;;13.80;1.00;;;15.13;59.52;99985.34;4979759;28;119762;-75
2022/10/16 10:06:38;;;;;;;12.57;7.78;;;13.80;1.00;;;15.07;59.94;99991.00;4978187;28;129887;-75
2022/10/16 10:09:20;;;;;;;11.73;7.40;;;13.80;1.00;;;14.97;59.83;100004.25;4978904;28;129715;-74
2022/10/16 10:11:55;;;;;;;12.15;7.57;;;13.70;1.00;;;14.96;60.41;99994.44;4964927;28;118759;-76
2022/10/16 10:14:33;;;;;;;10.25;6.85;;;13.70;1.00;;;14.98;59.97;99998.44;4979859;28;119765;-76
2022/10/16 10:17:17;;;;;;;13.10;7.40;;;13.70;1.00;;;14.96;60.53;99989.78;4979080;28;130178;-75
2022/10/16 10:19:51;;;;;;;14.35;7.03;;;13.70;1.00;;;14.83;60.12;99988.06;4964811;28;128525;-73
2022/10/16 10:22:27;;;;;;;14.68;7.40;;;13.70;1.00;;;14.87;60.64;99980.81;4981658;28;119002;-75
2022/10/16 10:25:16;;;;;;;12.00;7.18;;;13.70;1.00;;;14.92;60.28;99980.63;4964655;28;118546;-77
2022/10/16 10:28:22;;;;;;;12.02;7.30;;;13.80;1.00;;;14.95;59.92;99979.97;4979942;28;130279;-75
2022/10/16 10:31:02;;;;;;;12.95;7.22;;;13.80;1.00;;;15.07;60.06;99982.00;4982383;28;129968;-74
2022/10/16 10:33:43;;;;;;;11.75;7.00;;;13.90;1.00;;;14.98;59.43;99982.03;4966970;28;121502;-76
2022/10/16 10:36:41;;;;;;;13.18;6.88;;;13.90;1.00;;;15.07;59.72;99990.22;4982395;28;121973;-75
2022/10/16 10:39:19;;;;;;;13.40;7.20;;;14.00;1.00;;;15.22;58.87;99986.09;4965841;28;129696;-76
2022/10/16 10:42:26;;;;;;;12.73;7.63;;;14.10;1.00;;;15.23;58.86;99987.72;4982202;28;129783;-75